Latest Weather Observations for Cooktown

IDQ60801

Issued at 11:32 pm EST Thursday 29 September 2016 (issued every 30 minutes, with the page automatically refreshed every 10 minutes)

About weather observations | Map of weather stations | Latest weather observations for QLD | Other Formats
Station Details ID: 031209 Name: COOKTOWN AIRPORT Lat: -15.45 Lon: 145.19 Height: 4.8 m
Data from the previous 72 hours. | See also: Recent months at Cooktown
Date/Time
EST
Temp
°C
App
Temp
°C
Dew
Point
°C
Rel
Hum
%
Delta-T
°C
Wind Press
QNH
hPa
Press
MSL
hPa
Rain since
9am
mm
Dir  Spd
km/h
Gust
km/h
Spd
kts
Gust
kts
29/11:30pm 22.7 26.9 20.9 89 1.2 CALM 0 0 0 0 1011.6 - 0.0
29/11:00pm 23.0 26.6 21.3 90 1.1 W 4 13 2 7 1011.8 - 0.0
29/10:30pm 22.1 24.8 20.7 92 0.9 NW 7 9 4 5 1011.2 - 0.0
29/10:00pm 22.7 27.0 21.2 91 1.0 CALM 0 0 0 0 1011.1 - 0.0
29/09:30pm 22.9 27.1 20.9 88 1.3 CALM 0 0 0 0 1011.2 - 0.0
29/09:00pm 23.0 27.2 20.9 88 1.4 CALM 0 0 0 0 1010.8 1010.6 0.0
29/08:30pm 23.5 27.8 21.1 86 1.6 CALM 0 0 0 0 1010.3 - 0.0
29/08:00pm 24.2 28.4 21.0 82 2.1 CALM 0 0 0 0 1009.9 - 0.0
29/07:30pm 24.5 27.2 20.7 79 2.5 ENE 7 9 4 5 1009.3 - 0.0
29/07:00pm 25.3 28.0 20.7 75 3.0 NE 7 9 4 5 1008.9 - 0.0
29/06:30pm 25.9 28.7 20.9 74 3.3 NE 7 11 4 6 1008.7 - 0.0
29/06:00pm 26.8 28.9 20.2 67 4.3 NNE 9 15 5 8 1008.4 1008.1 0.0
29/05:30pm 27.8 28.2 19.1 59 5.6 NNE 15 22 8 12 1008.0 - 0.0
29/05:00pm 28.4 28.7 18.8 56 6.2 NE 15 20 8 11 1007.6 - 0.0
29/04:30pm 29.1 29.4 20.3 59 5.8 E 19 26 10 14 1007.3 - 0.0
29/04:00pm 28.8 28.1 20.3 60 5.6 E 24 32 13 17 1007.2 - 0.0
29/03:30pm 28.8 27.9 20.7 61 5.4 E 26 33 14 18 1007.3 - 0.0
29/03:00pm 29.2 28.1 20.3 58 5.9 E 26 33 14 18 1007.6 1007.5 0.0
29/02:30pm 29.6 29.0 20.4 57 6.1 E 24 35 13 19 1007.8 - 0.0
29/02:00pm 30.2 28.9 19.9 54 6.8 E 26 33 14 18 1008.4 - 0.0
29/01:30pm 30.2 29.1 19.5 52 7.0 ENE 24 30 13 16 1008.9 - 0.0
29/01:00pm 30.1 29.0 19.4 52 7.0 E 24 30 13 16 1009.4 - 0.0
29/12:30pm 30.2 29.9 19.5 52 7.0 E 20 30 11 16 1009.7 - 0.0
29/12:00pm 30.0 29.7 19.6 53 6.8 E 20 28 11 15 1010.2 1010.1 0.0
29/11:30am 30.6 30.3 19.1 50 7.5 E 19 28 10 15 1010.6 - 0.0
29/11:00am 29.7 30.1 18.9 52 7.0 ESE 15 24 8 13 1011.4 - 0.0
29/10:30am 29.7 30.3 19.4 54 6.7 E 15 22 8 12 1011.7 - 0.0
29/10:00am 29.3 30.3 19.5 55 6.4 E 13 19 7 10 1012.0 - 0.0
29/09:30am 28.9 31.0 20.2 59 5.7 ENE 9 17 5 9 1012.0 - 0.0
29/09:00am 26.9 30.3 21.0 70 3.9 N 4 6 2 3 1012.1 1012.0 0.0
29/08:30am 28.0 31.5 21.9 69 4.1 NE 6 11 3 6 1011.9 - 0.0
29/08:00am 25.5 29.9 21.4 78 2.7 CALM 0 0 0 0 1011.8 - 0.0
29/07:30am 23.3 27.6 21.2 88 1.4 CALM 0 0 0 0 1011.7 - 0.0
29/07:00am 21.7 25.8 20.8 95 0.6 CALM 0 0 0 0 1011.5 - 0.0
29/06:30am 20.9 23.9 20.1 95 0.5 W 4 7 2 4 1011.4 - 0.0
29/06:00am 20.8 23.8 20.0 95 0.5 W 4 7 2 4 1011.0 1010.9 0.0
29/05:30am 21.0 23.7 20.2 95 0.5 W 6 7 3 4 1010.6 - 0.0
29/05:00am 20.6 22.9 19.8 95 0.5 W 7 9 4 5 1010.3 - 0.0
29/04:30am 21.2 24.0 20.4 95 0.5 WNW 6 7 3 4 1010.0 - 0.0
29/04:00am 21.2 25.1 20.3 95 0.6 CALM 0 0 0 0 1010.0 - 0.0
29/03:30am 20.9 24.6 20.0 95 0.6 CALM 0 0 0 0 1010.0 - 0.0
29/03:00am 21.3 25.3 20.5 95 0.5 CALM 0 0 0 0 1010.0 1009.9 0.0
29/02:30am 21.2 25.1 20.3 95 0.6 CALM 0 0 0 0 1010.3 - 0.0
29/02:00am 21.7 25.7 20.6 93 0.7 CALM 0 0 0 0 1010.6 - 0.0
29/01:30am 22.3 25.4 21.1 93 0.8 NW 6 7 3 4 1011.1 - 0.0
29/01:00am 22.6 25.9 20.8 89 1.2 N 4 6 2 3 1011.6 - 0.0
29/12:30am 24.7 27.2 21.1 80 2.4 E 9 13 5 7 1012.0 - 0.0
29/12:00am 24.9 27.4 21.1 79 2.5 ENE 9 13 5 7 1012.2 1012.1 0.0
 
Date/Time
EST
Temp
°C
App
Temp
°C
Dew
Point
°C
Rel
Hum
%
Delta-T
°C
Wind Press
QNH
hPa
Press
MSL
hPa
Rain since
9am
mm
Dir  Spd
km/h
Gust
km/h
Spd
kts
Gust
kts
28/11:30pm 25.0 27.1 21.0 78 2.6 ENE 11 19 6 10 1012.3 - 0.0
28/11:00pm 25.0 27.0 21.5 81 2.3 E 13 17 7 9 1012.4 - 0.0
28/10:30pm 24.9 27.2 21.3 80 2.4 E 11 15 6 8 1012.7 - 0.0
28/10:00pm 25.4 28.2 21.6 79 2.5 E 9 13 5 7 1012.7 - 0.0
28/09:30pm 25.3 27.7 21.5 79 2.5 ENE 11 17 6 9 1012.3 - 0.0
28/09:00pm 25.2 27.6 21.6 80 2.4 E 11 15 6 8 1012.0 1011.8 0.0
28/08:30pm 25.2 27.5 21.4 79 2.5 E 11 17 6 9 1011.6 - 0.0
28/08:00pm 25.4 27.3 21.3 78 2.7 E 13 17 7 9 1011.2 - 0.0
28/07:30pm 25.5 27.4 21.4 78 2.7 E 13 19 7 10 1010.8 - 0.0
28/07:00pm 25.8 27.7 21.4 76 2.9 E 13 19 7 10 1010.7 - 0.0
28/06:30pm 25.7 27.1 21.0 75 3.1 E 15 20 8 11 1010.6 - 0.0
28/06:00pm 26.5 27.1 21.1 72 3.6 E 19 22 10 12 1010.4 1010.2 0.0
28/05:30pm 27.1 27.7 21.1 69 4.0 E 19 26 10 14 1010.1 - 0.0
28/05:00pm 27.5 27.6 20.3 65 4.7 E 20 26 11 14 1009.9 - 0.0
28/04:30pm 28.0 28.5 20.9 65 4.7 E 19 24 10 13 1009.6 - 0.0
28/04:00pm 28.3 28.7 20.9 64 4.9 E 20 28 11 15 1009.6 - 0.0
28/03:30pm 28.5 28.7 20.6 62 5.2 E 20 28 11 15 1009.6 - 0.0
28/03:00pm 28.6 28.3 20.4 61 5.4 ENE 22 32 12 17 1009.9 1009.8 0.0
28/02:30pm 29.3 29.2 20.7 59 5.7 E 22 35 12 19 1010.1 - 0.0
28/02:00pm 29.2 29.0 20.6 59 5.7 E 22 28 12 15 1010.4 - 0.0
28/01:30pm 29.0 28.3 20.2 59 5.8 ENE 24 32 13 17 1010.7 - 0.0
28/01:00pm 30.4 30.6 20.6 55 6.5 ENE 20 28 11 15 1011.3 - 0.0
28/12:30pm 29.2 28.8 20.1 58 6.0 E 22 32 12 17 1011.9 - 0.0
28/12:00pm 29.2 28.7 19.9 57 6.1 E 22 32 12 17 1012.3 1012.3 0.0
28/11:30am 29.9 29.5 20.2 56 6.4 E 22 30 12 16 1012.6 - 0.0
28/11:00am 30.1 30.4 20.8 57 6.2 E 20 32 11 17 1013.1 - 0.0
28/10:30am 29.9 30.0 21.1 59 5.9 E 22 32 12 17 1013.5 - 0.0
28/10:00am 29.0 28.5 20.7 61 5.5 E 24 33 13 18 1013.9 - 0.0
28/09:30am 28.4 28.0 20.9 64 5.0 E 24 32 13 17 1014.1 - 0.0
28/09:00am 28.5 28.1 21.0 64 5.0 E 24 30 13 16 1013.9 1013.8 0.0
28/08:30am 28.5 29.0 21.1 64 4.9 E 20 30 11 16 1013.7 - 0.0
28/08:00am 27.5 27.4 20.8 67 4.4 E 22 28 12 15 1013.4 - 0.0
28/07:30am 27.4 27.8 20.9 67 4.3 E 20 30 11 16 1012.9 - 0.0
28/07:00am 26.1 27.1 21.1 74 3.3 E 17 26 9 14 1012.5 - 0.0
28/06:30am 25.1 26.7 21.5 80 2.4 E 15 22 8 12 1012.2 - 0.0
28/06:00am 24.9 25.9 21.1 79 2.5 E 17 24 9 13 1011.8 - 0.0
28/05:30am 24.7 26.5 21.2 81 2.3 E 13 17 7 9 1011.7 - 0.0
28/05:00am 25.2 25.8 21.1 78 2.7 E 19 24 10 13 1011.3 - 0.0
28/04:58am 25.2 25.8 21.1 78 2.7 E 19 24 10 13 1011.3 - 0.0
28/04:30am 25.3 26.4 21.2 78 2.7 E 17 24 9 13 1011.0 - 0.0
28/04:01am 25.4 26.6 21.5 79 2.6 E 17 22 9 12 1011.0 - 0.0
28/04:00am 25.3 26.5 21.5 79 2.5 E 17 22 9 12 1011.0 - 0.0
28/03:48am 25.4 26.2 21.3 78 2.7 E 19 26 10 14 1010.9 - 0.0
28/03:30am 25.2 26.4 21.4 79 2.5 E 17 20 9 11 1010.8 - 0.0
28/03:00am 25.4 26.7 21.6 79 2.5 E 17 20 9 11 1010.8 1010.8 0.0
28/02:40am 25.3 26.3 21.8 81 2.3 E 19 24 10 13 1011.0 - 0.0
28/02:30am 25.3 26.5 21.4 79 2.6 E 17 26 9 14 1011.0 - 0.0
28/02:06am 25.3 26.3 21.7 80 2.4 E 19 24 10 13 1011.3 - 0.0
28/02:00am 25.3 26.3 21.7 80 2.4 E 19 26 10 14 1011.3 - 0.0
28/01:34am 25.3 27.1 21.8 81 2.3 E 15 20 8 11 1011.7 - 0.0
28/01:30am 25.4 27.2 21.8 80 2.4 E 15 20 8 11 1011.8 - 0.0
28/01:00am 25.6 26.0 21.7 79 2.6 E 22 32 12 17 1012.1 - 0.0
28/12:30am 25.9 25.9 21.7 77 2.8 E 24 32 13 17 1012.5 - 0.0
28/12:00am 25.8 27.1 22.4 81 2.3 E 19 24 10 13 1012.7 1012.5 0.0
 
Date/Time
EST
Temp
°C
App
Temp
°C
Dew
Point
°C
Rel
Hum
%
Delta-T
°C
Wind Press
QNH
hPa
Press
MSL
hPa
Rain since
9am
mm
Dir  Spd
km/h
Gust
km/h
Spd
kts
Gust
kts
27/11:30pm 25.7 26.7 22.1 80 2.4 E 20 26 11 14 1012.9 - 0.0
27/11:00pm 25.5 27.6 22.4 83 2.1 ESE 15 24 8 13 1012.9 - 0.0
27/10:30pm 25.7 27.4 22.3 81 2.3 ESE 17 24 9 13 1012.9 - 0.0
27/10:00pm 25.8 26.8 21.7 78 2.7 ESE 19 26 10 14 1012.7 - 0.0
27/09:30pm 25.9 26.6 22.2 80 2.5 ESE 22 30 12 16 1012.6 - 0.0
27/09:12pm 25.9 27.0 21.9 78 2.7 ESE 19 28 10 15 1012.5 - 0.0
27/09:00pm 25.9 27.0 22.0 79 2.6 ESE 19 26 10 14 1012.4 1012.3 0.0
27/08:40pm 26.0 27.7 22.3 80 2.5 ESE 17 26 9 14 1012.2 - 0.0
27/08:30pm 25.9 27.6 22.3 80 2.4 ESE 17 24 9 13 1012.0 - 0.0
27/08:05pm 25.8 27.4 22.1 80 2.5 ESE 17 22 9 12 1011.8 - 0.0
27/08:00pm 25.9 27.0 22.0 79 2.6 ESE 19 26 10 14 1011.7 - 0.0
27/07:30pm 25.8 27.4 22.1 80 2.5 E 17 24 9 13 1011.6 - 0.0
27/07:13pm 25.9 27.0 22.0 79 2.6 ESE 19 28 10 15 1011.4 - 0.0
27/07:00pm 25.7 27.3 22.1 80 2.4 ESE 17 24 9 13 1011.3 - 0.0
27/06:30pm 25.9 27.3 21.9 78 2.7 E 17 26 9 14 1010.8 - 0.0
27/06:00pm 26.5 27.3 21.7 75 3.2 ESE 20 28 11 15 1010.6 1010.4 0.0
27/05:30pm 27.2 28.0 21.7 72 3.7 E 20 28 11 15 1010.3 - 0.0
27/05:00pm 27.8 28.4 21.3 67 4.3 E 20 28 11 15 1010.0 - 0.0
27/04:30pm 28.2 28.0 21.3 66 4.6 E 24 32 13 17 1009.8 - 0.0
27/04:00pm 28.4 28.9 21.9 68 4.4 E 22 30 12 16 1009.7 - 0.0
27/03:30pm 28.5 28.6 21.1 64 4.9 ESE 22 32 12 17 1009.8 - 0.0
27/03:00pm 29.4 29.7 21.5 62 5.3 E 22 32 12 17 1010.1 1010.0 0.0
27/02:30pm 30.1 30.2 21.1 58 6.0 E 22 35 12 19 1010.2 - 0.0
27/02:00pm 29.9 29.6 21.1 59 5.9 E 24 33 13 18 1010.7 - 0.0
27/01:30pm 29.8 29.6 21.3 60 5.7 E 24 33 13 18 1011.1 - 0.0
27/01:00pm 30.2 30.4 21.4 59 5.9 ESE 22 32 12 17 1011.7 - 0.0
27/12:30pm 30.2 30.4 21.4 59 5.9 E 22 30 12 16 1012.2 - 0.0
27/12:00pm 30.0 29.9 20.8 57 6.1 E 22 32 12 17 1012.8 1012.8 0.0
27/11:30am 30.0 31.2 21.5 60 5.7 ESE 17 30 9 16 1013.1 - 0.0
27/11:00am 30.4 31.1 21.5 59 6.0 E 20 28 11 15 1013.4 - 0.0
27/10:30am 29.6 30.1 21.2 60 5.6 ESE 20 32 11 17 1013.7 - 0.0
27/10:00am 29.0 30.9 22.0 66 4.7 SE 15 22 8 12 1014.1 - 0.0
27/09:30am 28.1 29.3 21.5 67 4.4 SE 17 24 9 13 1014.2 - 0.0
27/09:00am 29.2 28.9 21.1 61 5.4 E 24 35 13 19 1014.2 1014.1 0.0
27/08:30am 27.6 29.6 22.3 73 3.6 SE 15 19 8 10 1014.2 - 0.0
27/08:00am 26.8 28.4 22.2 76 3.1 SE 17 26 9 14 1013.8 - 0.0
27/07:30am 26.3 29.9 23.1 82 2.2 SE 9 13 5 7 1013.4 - 0.0
27/07:00am 22.9 26.5 22.0 95 0.6 S 6 9 3 5 1013.0 - 0.0
27/06:30am 20.8 24.6 20.2 96 0.4 CALM 0 0 0 0 1012.6 - 0.0
27/06:00am 20.8 24.6 20.2 96 0.4 CALM 0 0 0 0 1012.4 1012.2 0.0
27/05:30am 20.9 24.7 20.1 95 0.5 CALM 0 0 0 0 1012.0 - 0.0
27/05:00am 21.2 25.2 20.6 96 0.4 CALM 0 0 0 0 1011.7 - 0.0
27/04:30am 21.4 25.5 20.8 96 0.4 CALM 0 0 0 0 1011.4 - 0.0
27/04:02am 21.9 26.2 21.1 95 0.5 CALM 0 0 0 0 1011.3 - 0.0
27/04:00am 21.9 26.2 21.1 95 0.5 CALM 0 0 0 0 1011.3 - 0.0
27/03:52am 22.3 26.8 21.5 95 0.5 CALM 0 0 0 0 1011.2 - 0.0
27/03:30am 22.3 26.9 21.7 96 0.4 CALM 0 0 0 0 1011.1 - 0.0
27/03:08am 21.9 26.2 21.1 95 0.5 CALM 0 0 0 0 1011.1 - 0.0
27/03:00am 22.3 26.8 21.5 95 0.5 CALM 0 0 0 0 1011.2 1011.2 0.0
27/02:30am 22.3 26.8 21.5 95 0.5 CALM 0 0 0 0 1011.7 - 0.0
27/02:00am 22.2 26.6 21.4 95 0.5 CALM 0 0 0 0 1011.9 - 0.0
27/01:30am 22.9 27.5 21.7 93 0.8 CALM 0 0 0 0 1012.3 - 0.0
27/01:00am 23.9 27.6 22.3 91 1.1 E 6 7 3 4 1012.6 - 0.0
27/12:30am 24.1 27.1 22.0 88 1.4 E 9 13 5 7 1012.9 - 0.0
27/12:00am 24.7 27.4 22.2 86 1.7 E 11 15 6 8 1013.3 1013.2 0.0

Other Formats:

Comma delimited format used in spreadsheet applications
http://www.bom.gov.au/fwo/IDQ60801/IDQ60801.95283.axf

JavaScript Object Notation format (JSON) in row-major order
http://www.bom.gov.au/fwo/IDQ60801/IDQ60801.95283.json